sensor_id;sensor_type;location;lat;lon;timestamp;pressure;altitude;pressure_sealevel;temperature;humidity
61488;BME280;47351;53.326;-6.298;2023-01-19T00:00:50;100530.73;;;0.64;90.84
61488;BME280;47351;53.326;-6.298;2023-01-19T00:03:42;100523.38;;;0.63;90.83
61488;BME280;47351;53.326;-6.298;2023-01-19T00:06:33;100522.27;;;0.64;90.87
61488;BME280;47351;53.326;-6.298;2023-01-19T00:09:24;100526.56;;;0.66;90.96
61488;BME280;47351;53.326;-6.298;2023-01-19T00:13:12;100525.69;;;0.68;91.01
61488;BME280;47351;53.326;-6.298;2023-01-19T00:16:05;100525.23;;;0.70;90.98
61488;BME280;47351;53.326;-6.298;2023-01-19T00:18:56;100522.38;;;0.71;90.92
61488;BME280;47351;53.326;-6.298;2023-01-19T00:21:46;100518.05;;;0.69;90.81
61488;BME280;47351;53.326;-6.298;2023-01-19T00:25:09;100518.83;;;0.68;90.74
61488;BME280;47351;53.326;-6.298;2023-01-19T00:28:07;100518.00;;;0.68;90.64
61488;BME280;47351;53.326;-6.298;2023-01-19T00:30:58;100522.36;;;0.68;90.66
61488;BME280;47351;53.326;-6.298;2023-01-19T00:34:11;100520.56;;;0.69;90.66
61488;BME280;47351;53.326;-6.298;2023-01-19T00:37:02;100515.63;;;0.69;90.66
61488;BME280;47351;53.326;-6.298;2023-01-19T00:39:55;100520.66;;;0.70;90.73
61488;BME280;47351;53.326;-6.298;2023-01-19T00:42:45;100518.95;;;0.69;90.70
61488;BME280;47351;53.326;-6.298;2023-01-19T00:45:37;100515.74;;;0.67;90.68
61488;BME280;47351;53.326;-6.298;2023-01-19T00:48:48;100516.60;;;0.65;90.59
61488;BME280;47351;53.326;-6.298;2023-01-19T00:55:40;100509.01;;;0.60;90.57
61488;BME280;47351;53.326;-6.298;2023-01-19T00:58:55;100504.63;;;0.60;90.51
61488;BME280;47351;53.326;-6.298;2023-01-19T01:02:05;100498.52;;;0.59;90.55
61488;BME280;47351;53.326;-6.298;2023-01-19T01:08:21;100502.43;;;0.58;90.62
61488;BME280;47351;53.326;-6.298;2023-01-19T01:11:25;100500.85;;;0.59;90.64
61488;BME280;47351;53.326;-6.298;2023-01-19T01:14:16;100498.98;;;0.58;90.59
61488;BME280;47351;53.326;-6.298;2023-01-19T01:17:21;100496.08;;;0.57;90.50
61488;BME280;47351;53.326;-6.298;2023-01-19T01:20:17;100496.17;;;0.55;90.40
61488;BME280;47351;53.326;-6.298;2023-01-19T01:23:34;100492.81;;;0.52;90.32
61488;BME280;47351;53.326;-6.298;2023-01-19T01:26:25;100486.44;;;0.51;90.37
61488;BME280;47351;53.326;-6.298;2023-01-19T01:29:20;100481.05;;;0.50;90.23
61488;BME280;47351;53.326;-6.298;2023-01-19T01:32:33;100479.92;;;0.51;90.24
61488;BME280;47351;53.326;-6.298;2023-01-19T01:35:51;100476.16;;;0.55;90.35
61488;BME280;47351;53.326;-6.298;2023-01-19T01:39:42;100470.99;;;0.61;90.39
61488;BME280;47351;53.326;-6.298;2023-01-19T01:42:55;100470.77;;;0.67;90.32
61488;BME280;47351;53.326;-6.298;2023-01-19T01:49:48;100469.05;;;0.77;89.96
61488;BME280;47351;53.326;-6.298;2023-01-19T01:52:39;100468.19;;;0.80;89.85
61488;BME280;47351;53.326;-6.298;2023-01-19T01:56:24;100465.55;;;0.80;89.65
61488;BME280;47351;53.326;-6.298;2023-01-19T01:59:38;100465.27;;;0.79;89.54
61488;BME280;47351;53.326;-6.298;2023-01-19T02:02:40;100463.29;;;0.77;89.39
61488;BME280;47351;53.326;-6.298;2023-01-19T02:06:26;100458.58;;;0.74;89.27
61488;BME280;47351;53.326;-6.298;2023-01-19T02:09:19;100456.80;;;0.72;89.21
61488;BME280;47351;53.326;-6.298;2023-01-19T02:12:31;100455.83;;;0.68;89.11
61488;BME280;47351;53.326;-6.298;2023-01-19T02:15:39;100455.20;;;0.66;89.12
61488;BME280;47351;53.326;-6.298;2023-01-19T02:18:37;100448.11;;;0.67;89.18
61488;BME280;47351;53.326;-6.298;2023-01-19T02:21:29;100446.58;;;0.69;89.23
61488;BME280;47351;53.326;-6.298;2023-01-19T02:24:22;100438.21;;;0.74;89.21
61488;BME280;47351;53.326;-6.298;2023-01-19T02:27:33;100437.40;;;0.78;89.14
61488;BME280;47351;53.326;-6.298;2023-01-19T02:30:26;100435.87;;;0.82;89.06
61488;BME280;47351;53.326;-6.298;2023-01-19T02:33:16;100431.10;;;0.85;88.95
61488;BME280;47351;53.326;-6.298;2023-01-19T02:36:12;100432.77;;;0.87;88.79
61488;BME280;47351;53.326;-6.298;2023-01-19T02:39:09;100433.84;;;0.86;88.60
61488;BME280;47351;53.326;-6.298;2023-01-19T02:42:01;100435.13;;;0.86;88.39
61488;BME280;47351;53.326;-6.298;2023-01-19T02:45:00;100436.16;;;0.83;88.29
61488;BME280;47351;53.326;-6.298;2023-01-19T02:48:37;100436.55;;;0.80;88.13
61488;BME280;47351;53.326;-6.298;2023-01-19T02:51:33;100432.64;;;0.78;88.14
61488;BME280;47351;53.326;-6.298;2023-01-19T02:54:33;100435.17;;;0.77;88.16
61488;BME280;47351;53.326;-6.298;2023-01-19T02:58:38;100432.03;;;0.77;88.22
61488;BME280;47351;53.326;-6.298;2023-01-19T03:01:54;100432.15;;;0.78;88.21
61488;BME280;47351;53.326;-6.298;2023-01-19T03:05:37;100430.66;;;0.79;88.22
61488;BME280;47351;53.326;-6.298;2023-01-19T03:09:33;100430.17;;;0.81;88.18
61488;BME280;47351;53.326;-6.298;2023-01-19T03:12:30;100429.92;;;0.82;88.08
61488;BME280;47351;53.326;-6.298;2023-01-19T03:15:57;100432.05;;;0.82;88.08
61488;BME280;47351;53.326;-6.298;2023-01-19T03:18:51;100429.27;;;0.81;87.85
61488;BME280;47351;53.326;-6.298;2023-01-19T03:22:04;100429.88;;;0.80;87.71
61488;BME280;47351;53.326;-6.298;2023-01-19T03:24:57;100429.63;;;0.79;87.61
61488;BME280;47351;53.326;-6.298;2023-01-19T03:27:52;100431.89;;;0.76;87.54
61488;BME280;47351;53.326;-6.298;2023-01-19T03:31:09;100432.84;;;0.75;87.55
61488;BME280;47351;53.326;-6.298;2023-01-19T03:34:02;100431.66;;;0.75;87.44
61488;BME280;47351;53.326;-6.298;2023-01-19T03:37:14;100426.48;;;0.76;87.44
61488;BME280;47351;53.326;-6.298;2023-01-19T03:40:10;100423.17;;;0.78;87.57
61488;BME280;47351;53.326;-6.298;2023-01-19T03:43:00;100417.60;;;0.80;87.48
61488;BME280;47351;53.326;-6.298;2023-01-19T03:45:55;100413.42;;;0.82;87.41
61488;BME280;47351;53.326;-6.298;2023-01-19T03:48:48;100407.69;;;0.83;87.33
61488;BME280;47351;53.326;-6.298;2023-01-19T03:51:39;100408.99;;;0.85;87.32
61488;BME280;47351;53.326;-6.298;2023-01-19T03:54:30;100407.24;;;0.85;87.25
61488;BME280;47351;53.326;-6.298;2023-01-19T03:57:24;100411.05;;;0.83;86.97
61488;BME280;47351;53.326;-6.298;2023-01-19T04:00:18;100414.40;;;0.81;86.85
61488;BME280;47351;53.326;-6.298;2023-01-19T04:03:12;100406.65;;;0.78;86.74
61488;BME280;47351;53.326;-6.298;2023-01-19T04:06:04;100405.95;;;0.75;86.70
61488;BME280;47351;53.326;-6.298;2023-01-19T04:08:54;100403.31;;;0.73;86.67
61488;BME280;47351;53.326;-6.298;2023-01-19T04:11:48;100400.37;;;0.70;86.56
61488;BME280;47351;53.326;-6.298;2023-01-19T04:14:40;100395.70;;;0.66;86.54
61488;BME280;47351;53.326;-6.298;2023-01-19T04:17:31;100393.09;;;0.63;86.59
61488;BME280;47351;53.326;-6.298;2023-01-19T04:20:22;100394.61;;;0.61;86.65
61488;BME280;47351;53.326;-6.298;2023-01-19T04:23:16;100396.38;;;0.61;86.71
61488;BME280;47351;53.326;-6.298;2023-01-19T04:26:07;100397.91;;;0.62;86.79
61488;BME280;47351;53.326;-6.298;2023-01-19T04:28:58;100400.05;;;0.64;86.71
61488;BME280;47351;53.326;-6.298;2023-01-19T04:32:09;100400.38;;;0.67;86.91
61488;BME280;47351;53.326;-6.298;2023-01-19T04:35:00;100399.89;;;0.69;86.95
61488;BME280;47351;53.326;-6.298;2023-01-19T04:37:52;100404.08;;;0.69;86.84
61488;BME280;47351;53.326;-6.298;2023-01-19T04:40:43;100406.36;;;0.69;86.67
61488;BME280;47351;53.326;-6.298;2023-01-19T04:43:36;100405.91;;;0.68;86.63
61488;BME280;47351;53.326;-6.298;2023-01-19T04:46:29;100405.64;;;0.64;86.40
61488;BME280;47351;53.326;-6.298;2023-01-19T04:49:20;100407.63;;;0.61;86.23
61488;BME280;47351;53.326;-6.298;2023-01-19T04:52:11;100410.39;;;0.56;86.27
61488;BME280;47351;53.326;-6.298;2023-01-19T04:55:02;100407.86;;;0.52;86.28
61488;BME280;47351;53.326;-6.298;2023-01-19T04:57:53;100405.23;;;0.47;86.26
61488;BME280;47351;53.326;-6.298;2023-01-19T05:00:43;100407.72;;;0.41;86.21
61488;BME280;47351;53.326;-6.298;2023-01-19T05:03:35;100411.02;;;0.33;86.20
61488;BME280;47351;53.326;-6.298;2023-01-19T05:06:26;100414.02;;;0.25;86.12
61488;BME280;47351;53.326;-6.298;2023-01-19T05:09:17;100410.98;;;0.17;86.23
61488;BME280;47351;53.326;-6.298;2023-01-19T05:12:07;100409.19;;;0.10;86.36
61488;BME280;47351;53.326;-6.298;2023-01-19T05:15:01;100408.98;;;0.03;86.31
61488;BME280;47351;53.326;-6.298;2023-01-19T05:17:53;100406.16;;;-0.06;86.52
61488;BME280;47351;53.326;-6.298;2023-01-19T05:20:46;100405.06;;;-0.11;86.67
61488;BME280;47351;53.326;-6.298;2023-01-19T05:23:39;100402.88;;;-0.15;86.78
61488;BME280;47351;53.326;-6.298;2023-01-19T05:26:30;100399.09;;;-0.19;86.92
61488;BME280;47351;53.326;-6.298;2023-01-19T05:29:20;100397.29;;;-0.21;86.88
61488;BME280;47351;53.326;-6.298;2023-01-19T05:32:11;100395.95;;;-0.21;86.96
61488;BME280;47351;53.326;-6.298;2023-01-19T05:35:05;100392.09;;;-0.21;87.14
61488;BME280;47351;53.326;-6.298;2023-01-19T05:37:59;100395.48;;;-0.20;87.23
61488;BME280;47351;53.326;-6.298;2023-01-19T05:40:54;100400.32;;;-0.18;87.45
61488;BME280;47351;53.326;-6.298;2023-01-19T05:43:45;100396.71;;;-0.17;87.46
61488;BME280;47351;53.326;-6.298;2023-01-19T05:46:37;100398.38;;;-0.15;87.60
61488;BME280;47351;53.326;-6.298;2023-01-19T05:49:28;100399.23;;;-0.16;87.44
61488;BME280;47351;53.326;-6.298;2023-01-19T05:52:28;100399.03;;;-0.18;87.19
61488;BME280;47351;53.326;-6.298;2023-01-19T05:55:21;100400.48;;;-0.21;87.28
61488;BME280;47351;53.326;-6.298;2023-01-19T05:58:14;100409.64;;;-0.25;87.35
61488;BME280;47351;53.326;-6.298;2023-01-19T06:01:07;100412.66;;;-0.28;87.45
61488;BME280;47351;53.326;-6.298;2023-01-19T06:03:58;100418.07;;;-0.33;87.40
61488;BME280;47351;53.326;-6.298;2023-01-19T06:06:49;100418.96;;;-0.39;87.42
61488;BME280;47351;53.326;-6.298;2023-01-19T06:09:40;100418.27;;;-0.45;87.39
61488;BME280;47351;53.326;-6.298;2023-01-19T06:12:32;100418.99;;;-0.51;87.30
61488;BME280;47351;53.326;-6.298;2023-01-19T06:15:25;100418.92;;;-0.59;87.31
61488;BME280;47351;53.326;-6.298;2023-01-19T06:18:17;100419.83;;;-0.64;87.39
61488;BME280;47351;53.326;-6.298;2023-01-19T06:21:08;100422.27;;;-0.70;87.57
61488;BME280;47351;53.326;-6.298;2023-01-19T06:24:21;100426.44;;;-0.75;87.68
61488;BME280;47351;53.326;-6.298;2023-01-19T06:27:17;100429.40;;;-0.78;87.87
61488;BME280;47351;53.326;-6.298;2023-01-19T06:30:12;100427.44;;;-0.80;87.88
61488;BME280;47351;53.326;-6.298;2023-01-19T06:33:04;100428.35;;;-0.81;88.02
61488;BME280;47351;53.326;-6.298;2023-01-19T06:35:57;100436.08;;;-0.81;88.01
61488;BME280;47351;53.326;-6.298;2023-01-19T06:38:47;100437.12;;;-0.81;88.07
61488;BME280;47351;53.326;-6.298;2023-01-19T06:41:38;100441.23;;;-0.79;88.18
61488;BME280;47351;53.326;-6.298;2023-01-19T06:44:29;100443.87;;;-0.76;88.32
61488;BME280;47351;53.326;-6.298;2023-01-19T06:47:21;100448.38;;;-0.73;88.32
61488;BME280;47351;53.326;-6.298;2023-01-19T06:50:12;100453.46;;;-0.71;88.38
61488;BME280;47351;53.326;-6.298;2023-01-19T06:53:07;100455.82;;;-0.69;88.32
61488;BME280;47351;53.326;-6.298;2023-01-19T06:56:19;100458.11;;;-0.65;88.49
61488;BME280;47351;53.326;-6.298;2023-01-19T06:59:10;100462.48;;;-0.63;88.49
61488;BME280;47351;53.326;-6.298;2023-01-19T07:02:01;100463.56;;;-0.58;88.64
61488;BME280;47351;53.326;-6.298;2023-01-19T07:05:15;100464.23;;;-0.48;88.78
61488;BME280;47351;53.326;-6.298;2023-01-19T07:08:09;100465.04;;;-0.38;88.81
61488;BME280;47351;53.326;-6.298;2023-01-19T07:11:00;100464.98;;;-0.29;88.92
61488;BME280;47351;53.326;-6.298;2023-01-19T07:14:16;100462.31;;;-0.17;89.12
61488;BME280;47351;53.326;-6.298;2023-01-19T07:17:06;100462.45;;;-0.06;89.07
61488;BME280;47351;53.326;-6.298;2023-01-19T07:19:59;100467.06;;;0.05;89.03
61488;BME280;47351;53.326;-6.298;2023-01-19T07:22:53;100471.00;;;0.12;88.85
61488;BME280;47351;53.326;-6.298;2023-01-19T07:25:45;100477.30;;;0.18;88.70
61488;BME280;47351;53.326;-6.298;2023-01-19T07:28:35;100479.03;;;0.24;88.53
61488;BME280;47351;53.326;-6.298;2023-01-19T07:31:46;100475.91;;;0.29;88.32
61488;BME280;47351;53.326;-6.298;2023-01-19T07:34:40;100473.39;;;0.32;88.12
61488;BME280;47351;53.326;-6.298;2023-01-19T07:37:31;100482.55;;;0.35;88.00
61488;BME280;47351;53.326;-6.298;2023-01-19T07:40:21;100486.95;;;0.37;87.98
61488;BME280;47351;53.326;-6.298;2023-01-19T07:43:12;100489.77;;;0.40;87.92
61488;BME280;47351;53.326;-6.298;2023-01-19T07:46:03;100497.55;;;0.44;87.98
61488;BME280;47351;53.326;-6.298;2023-01-19T07:48:55;100501.23;;;0.50;88.05
61488;BME280;47351;53.326;-6.298;2023-01-19T07:51:45;100502.81;;;0.55;87.98
61488;BME280;47351;53.326;-6.298;2023-01-19T07:54:36;100501.06;;;0.61;87.95
61488;BME280;47351;53.326;-6.298;2023-01-19T07:57:27;100501.03;;;0.67;88.09
61488;BME280;47351;53.326;-6.298;2023-01-19T08:00:23;100503.74;;;0.73;88.16
61488;BME280;47351;53.326;-6.298;2023-01-19T08:03:17;100503.55;;;0.79;88.19
61488;BME280;47351;53.326;-6.298;2023-01-19T08:06:09;100504.13;;;0.83;88.06
61488;BME280;47351;53.326;-6.298;2023-01-19T08:09:25;100501.45;;;0.87;88.02
61488;BME280;47351;53.326;-6.298;2023-01-19T08:12:17;100504.73;;;0.88;87.96
61488;BME280;47351;53.326;-6.298;2023-01-19T08:15:09;100506.14;;;0.88;87.90
61488;BME280;47351;53.326;-6.298;2023-01-19T08:18:01;100509.86;;;0.87;87.88
61488;BME280;47351;53.326;-6.298;2023-01-19T08:20:53;100517.30;;;0.86;87.90
61488;BME280;47351;53.326;-6.298;2023-01-19T08:23:44;100523.19;;;0.85;87.92
61488;BME280;47351;53.326;-6.298;2023-01-19T08:26:41;100525.76;;;0.83;87.90
61488;BME280;47351;53.326;-6.298;2023-01-19T08:29:34;100526.65;;;0.80;87.95
61488;BME280;47351;53.326;-6.298;2023-01-19T08:32:25;100531.05;;;0.78;87.96
61488;BME280;47351;53.326;-6.298;2023-01-19T08:35:16;100539.45;;;0.76;87.99
61488;BME280;47351;53.326;-6.298;2023-01-19T08:38:07;100546.02;;;0.74;88.01
61488;BME280;47351;53.326;-6.298;2023-01-19T08:40:58;100554.19;;;0.76;88.15
61488;BME280;47351;53.326;-6.298;2023-01-19T08:43:49;100551.70;;;0.79;88.30
61488;BME280;47351;53.326;-6.298;2023-01-19T08:50:44;100560.07;;;0.90;88.63
61488;BME280;47351;53.326;-6.298;2023-01-19T08:53:37;100562.02;;;0.98;88.71
61488;BME280;47351;53.326;-6.298;2023-01-19T08:56:28;100565.95;;;1.06;88.70
61488;BME280;47351;53.326;-6.298;2023-01-19T08:59:18;100570.94;;;1.12;88.64
61488;BME280;47351;53.326;-6.298;2023-01-19T09:02:10;100574.79;;;1.18;88.52
61488;BME280;47351;53.326;-6.298;2023-01-19T09:05:00;100578.48;;;1.23;88.39
61488;BME280;47351;53.326;-6.298;2023-01-19T09:07:55;100580.11;;;1.28;88.22
61488;BME280;47351;53.326;-6.298;2023-01-19T09:10:46;100580.20;;;1.32;88.10
61488;BME280;47351;53.326;-6.298;2023-01-19T09:13:37;100580.64;;;1.36;87.89
61488;BME280;47351;53.326;-6.298;2023-01-19T09:16:31;100583.04;;;1.40;87.88
61488;BME280;47351;53.326;-6.298;2023-01-19T09:19:23;100583.31;;;1.43;87.78
61488;BME280;47351;53.326;-6.298;2023-01-19T09:22:15;100579.82;;;1.48;87.63
61488;BME280;47351;53.326;-6.298;2023-01-19T09:25:07;100581.98;;;1.55;87.56
61488;BME280;47351;53.326;-6.298;2023-01-19T09:27:59;100581.49;;;1.63;87.48
61488;BME280;47351;53.326;-6.298;2023-01-19T09:30:51;100584.42;;;1.71;87.39
61488;BME280;47351;53.326;-6.298;2023-01-19T09:33:41;100592.84;;;1.82;87.33
61488;BME280;47351;53.326;-6.298;2023-01-19T09:36:32;100593.88;;;1.90;87.23
61488;BME280;47351;53.326;-6.298;2023-01-19T09:39:23;100597.73;;;1.96;87.06
61488;BME280;47351;53.326;-6.298;2023-01-19T09:42:17;100599.58;;;1.94;86.96
61488;BME280;47351;53.326;-6.298;2023-01-19T09:45:13;100600.36;;;1.90;86.94
61488;BME280;47351;53.326;-6.298;2023-01-19T09:48:13;100600.50;;;1.83;86.84
61488;BME280;47351;53.326;-6.298;2023-01-19T09:51:32;100605.12;;;1.72;86.83
61488;BME280;47351;53.326;-6.298;2023-01-19T09:54:26;100609.08;;;1.63;87.01
61488;BME280;47351;53.326;-6.298;2023-01-19T09:57:38;100614.01;;;1.55;87.05
61488;BME280;47351;53.326;-6.298;2023-01-19T10:00:29;100614.11;;;1.48;87.13
61488;BME280;47351;53.326;-6.298;2023-01-19T10:03:20;100616.48;;;1.45;87.08
61488;BME280;47351;53.326;-6.298;2023-01-19T10:06:13;100621.48;;;1.44;87.20
61488;BME280;47351;53.326;-6.298;2023-01-19T10:09:07;100625.06;;;1.45;87.36
61488;BME280;47351;53.326;-6.298;2023-01-19T10:12:07;100633.52;;;1.48;87.47
61488;BME280;47351;53.326;-6.298;2023-01-19T10:15:00;100642.14;;;1.53;87.55
61488;BME280;47351;53.326;-6.298;2023-01-19T10:17:59;100646.40;;;1.60;87.60
61488;BME280;47351;53.326;-6.298;2023-01-19T10:21:18;100655.80;;;1.67;87.57
61488;BME280;47351;53.326;-6.298;2023-01-19T10:24:14;100658.77;;;1.70;87.46
61488;BME280;47351;53.326;-6.298;2023-01-19T10:27:11;100664.45;;;1.72;87.39
61488;BME280;47351;53.326;-6.298;2023-01-19T10:30:03;100666.48;;;1.73;87.36
61488;BME280;47351;53.326;-6.298;2023-01-19T10:32:59;100666.77;;;1.73;87.30
61488;BME280;47351;53.326;-6.298;2023-01-19T10:35:52;100670.96;;;1.74;87.31
61488;BME280;47351;53.326;-6.298;2023-01-19T10:38:44;100675.67;;;1.75;87.28
61488;BME280;47351;53.326;-6.298;2023-01-19T10:41:39;100674.40;;;1.75;87.19
61488;BME280;47351;53.326;-6.298;2023-01-19T10:44:35;100680.13;;;1.76;87.32
61488;BME280;47351;53.326;-6.298;2023-01-19T10:47:32;100686.77;;;1.80;87.42
61488;BME280;47351;53.326;-6.298;2023-01-19T10:50:25;100691.09;;;1.83;87.41
61488;BME280;47351;53.326;-6.298;2023-01-19T10:53:19;100689.66;;;1.89;87.43
61488;BME280;47351;53.326;-6.298;2023-01-19T10:56:14;100696.05;;;1.99;87.29
61488;BME280;47351;53.326;-6.298;2023-01-19T10:59:05;100693.50;;;2.16;87.18
61488;BME280;47351;53.326;-6.298;2023-01-19T11:02:02;100697.71;;;2.44;86.92
61488;BME280;47351;53.326;-6.298;2023-01-19T11:04:55;100701.43;;;2.82;86.37
61488;BME280;47351;53.326;-6.298;2023-01-19T11:07:52;100699.55;;;3.20;85.99
61488;BME280;47351;53.326;-6.298;2023-01-19T11:10:44;100695.81;;;3.54;85.32
61488;BME280;47351;53.326;-6.298;2023-01-19T11:14:30;100696.03;;;3.92;83.94
61488;BME280;47351;53.326;-6.298;2023-01-19T11:17:21;100697.98;;;4.12;83.37
61488;BME280;47351;53.326;-6.298;2023-01-19T11:20:18;100706.26;;;4.29;82.75
61488;BME280;47351;53.326;-6.298;2023-01-19T11:23:16;100717.13;;;4.35;81.61
61488;BME280;47351;53.326;-6.298;2023-01-19T11:26:25;100719.49;;;4.29;81.36
61488;BME280;47351;53.326;-6.298;2023-01-19T11:29:17;100713.84;;;4.20;81.23
61488;BME280;47351;53.326;-6.298;2023-01-19T11:32:18;100714.66;;;4.09;81.38
61488;BME280;47351;53.326;-6.298;2023-01-19T11:35:31;100720.17;;;3.99;81.52
61488;BME280;47351;53.326;-6.298;2023-01-19T11:38:22;100721.30;;;3.89;81.55
61488;BME280;47351;53.326;-6.298;2023-01-19T11:41:16;100725.24;;;3.81;81.66
61488;BME280;47351;53.326;-6.298;2023-01-19T11:52:46;100724.31;;;4.26;81.04
61488;BME280;47351;53.326;-6.298;2023-01-19T11:55:41;100713.30;;;7.11;77.53
61488;BME280;47351;53.326;-6.298;2023-01-19T11:58:35;100698.37;;;10.28;73.89
61488;BME280;47351;53.326;-6.298;2023-01-19T12:01:28;100691.39;;;12.96;69.06
61488;BME280;47351;53.326;-6.298;2023-01-19T12:04:23;100687.73;;;15.10;65.49
61488;BME280;47351;53.326;-6.298;2023-01-19T12:07:35;100693.61;;;16.95;62.60
61488;BME280;47351;53.326;-6.298;2023-01-19T12:10:29;100693.47;;;18.05;58.34
61488;BME280;47351;53.326;-6.298;2023-01-19T12:13:25;100698.43;;;18.60;55.34
61488;BME280;47351;53.326;-6.298;2023-01-19T12:19:36;100697.98;;;16.28;54.52
61488;BME280;47351;53.326;-6.298;2023-01-19T12:22:34;100701.65;;;15.50;54.45
61488;BME280;47351;53.326;-6.298;2023-01-19T12:25:57;100694.02;;;16.76;53.47
61488;BME280;47351;53.326;-6.298;2023-01-19T12:29:52;100689.89;;;18.57;49.71
61488;BME280;47351;53.326;-6.298;2023-01-19T12:32:47;100697.28;;;19.09;47.64
61488;BME280;47351;53.326;-6.298;2023-01-19T12:35:55;100696.38;;;18.40;46.51
61488;BME280;47351;53.326;-6.298;2023-01-19T12:39:17;100704.27;;;16.31;47.73
61488;BME280;47351;53.326;-6.298;2023-01-19T12:46:24;100720.33;;;12.55;51.17
61488;BME280;47351;53.326;-6.298;2023-01-19T12:57:49;100724.61;;;12.10;54.54
61488;BME280;47351;53.326;-6.298;2023-01-19T13:01:10;100723.58;;;12.51;54.32
61488;BME280;47351;53.326;-6.298;2023-01-19T13:05:14;100724.13;;;12.63;52.77
61488;BME280;47351;53.326;-6.298;2023-01-19T13:08:13;100723.20;;;12.84;53.20
61488;BME280;47351;53.326;-6.298;2023-01-19T13:12:17;100724.77;;;13.15;52.66
61488;BME280;47351;53.326;-6.298;2023-01-19T13:18:50;100726.61;;;13.57;51.22
61488;BME280;47351;53.326;-6.298;2023-01-19T13:21:53;100720.83;;;13.49;51.06
61488;BME280;47351;53.326;-6.298;2023-01-19T13:29:04;100716.67;;;13.63;51.34
61488;BME280;47351;53.326;-6.298;2023-01-19T13:32:33;100713.95;;;13.73;50.14
61488;BME280;47351;53.326;-6.298;2023-01-19T13:35:23;100718.00;;;13.81;50.20
61488;BME280;47351;53.326;-6.298;2023-01-19T13:38:15;100720.27;;;13.89;49.67
61488;BME280;47351;53.326;-6.298;2023-01-19T13:41:06;100722.48;;;13.50;49.18
61488;BME280;47351;53.326;-6.298;2023-01-19T13:44:00;100728.16;;;12.18;50.74
61488;BME280;47351;53.326;-6.298;2023-01-19T13:46:56;100735.53;;;10.84;52.77
61488;BME280;47351;53.326;-6.298;2023-01-19T13:50:14;100737.12;;;9.73;54.96
61488;BME280;47351;53.326;-6.298;2023-01-19T13:53:14;100743.39;;;8.86;56.48
61488;BME280;47351;53.326;-6.298;2023-01-19T13:56:06;100744.09;;;8.16;58.00
61488;BME280;47351;53.326;-6.298;2023-01-19T13:59:01;100751.28;;;7.61;59.24
61488;BME280;47351;53.326;-6.298;2023-01-19T14:01:53;100751.29;;;7.12;60.48
61488;BME280;47351;53.326;-6.298;2023-01-19T14:04:44;100753.96;;;6.76;61.64
61488;BME280;47351;53.326;-6.298;2023-01-19T14:07:34;100759.25;;;6.45;62.73
61488;BME280;47351;53.326;-6.298;2023-01-19T14:10:25;100766.52;;;6.20;63.52
61488;BME280;47351;53.326;-6.298;2023-01-19T14:13:17;100774.72;;;5.96;64.22
61488;BME280;47351;53.326;-6.298;2023-01-19T14:16:13;100776.08;;;5.75;65.05
61488;BME280;47351;53.326;-6.298;2023-01-19T14:19:04;100779.08;;;5.58;65.59
61488;BME280;47351;53.326;-6.298;2023-01-19T14:22:00;100781.52;;;5.40;66.17
61488;BME280;47351;53.326;-6.298;2023-01-19T14:24:50;100778.42;;;5.24;66.80
61488;BME280;47351;53.326;-6.298;2023-01-19T14:27:41;100775.19;;;5.11;67.38
61488;BME280;47351;53.326;-6.298;2023-01-19T14:30:31;100773.80;;;4.99;67.95
61488;BME280;47351;53.326;-6.298;2023-01-19T14:33:39;100774.70;;;4.90;68.42
61488;BME280;47351;53.326;-6.298;2023-01-19T14:36:32;100786.30;;;4.82;68.85
61488;BME280;47351;53.326;-6.298;2023-01-19T14:39:25;100791.17;;;4.74;69.18
61488;BME280;47351;53.326;-6.298;2023-01-19T14:42:17;100798.46;;;4.66;69.58
61488;BME280;47351;53.326;-6.298;2023-01-19T14:45:12;100807.11;;;4.62;70.03
61488;BME280;47351;53.326;-6.298;2023-01-19T14:48:10;100812.94;;;4.60;70.21
61488;BME280;47351;53.326;-6.298;2023-01-19T14:51:06;100822.73;;;4.59;70.49
61488;BME280;47351;53.326;-6.298;2023-01-19T14:53:57;100826.16;;;4.58;70.76
61488;BME280;47351;53.326;-6.298;2023-01-19T14:56:49;100829.22;;;4.57;71.03
61488;BME280;47351;53.326;-6.298;2023-01-19T14:59:42;100833.17;;;4.56;71.31
61488;BME280;47351;53.326;-6.298;2023-01-19T15:02:37;100835.79;;;4.57;71.57
61488;BME280;47351;53.326;-6.298;2023-01-19T15:05:28;100839.61;;;4.55;71.69
61488;BME280;47351;53.326;-6.298;2023-01-19T15:08:19;100841.55;;;4.53;71.84
61488;BME280;47351;53.326;-6.298;2023-01-19T15:11:15;100849.90;;;4.50;72.03
61488;BME280;47351;53.326;-6.298;2023-01-19T15:14:09;100852.53;;;4.48;72.27
61488;BME280;47351;53.326;-6.298;2023-01-19T15:17:01;100853.96;;;4.46;72.46
61488;BME280;47351;53.326;-6.298;2023-01-19T15:19:52;100855.70;;;4.41;72.48
61488;BME280;47351;53.326;-6.298;2023-01-19T15:22:43;100859.80;;;4.36;72.60
61488;BME280;47351;53.326;-6.298;2023-01-19T15:25:34;100864.96;;;4.31;72.69
61488;BME280;47351;53.326;-6.298;2023-01-19T15:28:24;100869.27;;;4.25;72.81
61488;BME280;47351;53.326;-6.298;2023-01-19T15:31:15;100878.04;;;4.19;72.93
61488;BME280;47351;53.326;-6.298;2023-01-19T15:34:08;100887.54;;;4.12;72.88
61488;BME280;47351;53.326;-6.298;2023-01-19T15:36:59;100895.37;;;4.06;73.12
61488;BME280;47351;53.326;-6.298;2023-01-19T15:39:49;100899.12;;;4.01;73.34
61488;BME280;47351;53.326;-6.298;2023-01-19T15:42:40;100907.62;;;3.96;73.52
61488;BME280;47351;53.326;-6.298;2023-01-19T15:45:35;100910.38;;;3.89;73.69
61488;BME280;47351;53.326;-6.298;2023-01-19T15:48:25;100916.42;;;3.84;73.77
61488;BME280;47351;53.326;-6.298;2023-01-19T15:51:17;100921.40;;;3.79;73.93
61488;BME280;47351;53.326;-6.298;2023-01-19T15:54:09;100922.23;;;3.74;73.98
61488;BME280;47351;53.326;-6.298;2023-01-19T15:57:01;100922.22;;;3.70;74.20
61488;BME280;47351;53.326;-6.298;2023-01-19T15:59:51;100923.87;;;3.66;74.38
61488;BME280;47351;53.326;-6.298;2023-01-19T16:02:42;100924.02;;;3.64;74.59
61488;BME280;47351;53.326;-6.298;2023-01-19T16:05:33;100929.80;;;3.62;74.75
61488;BME280;47351;53.326;-6.298;2023-01-19T16:08:31;100939.78;;;3.61;74.97
61488;BME280;47351;53.326;-6.298;2023-01-19T16:11:21;100950.77;;;3.60;75.21
61488;BME280;47351;53.326;-6.298;2023-01-19T16:14:12;100955.95;;;3.59;75.42